createdAt,value
2018-05-16T00:01:06.225Z,56.40
2018-05-16T00:03:09.210Z,56.40
2018-05-16T00:05:12.276Z,56.30
2018-05-16T00:07:15.975Z,56.40
2018-05-16T00:09:19.677Z,56.50
2018-05-16T00:11:23.394Z,56.70
2018-05-16T00:13:26.310Z,56.60
2018-05-16T00:15:29.278Z,56.70
2018-05-16T00:17:32.223Z,56.80
2018-05-16T00:19:36.025Z,56.80
2018-05-16T00:21:39.706Z,57.00
2018-05-16T00:23:42.622Z,56.90
2018-05-16T00:25:45.565Z,57.00
2018-05-16T00:27:48.508Z,57.00
2018-05-16T00:29:51.455Z,57.00
2018-05-16T00:31:55.253Z,57.30
2018-05-16T00:33:58.925Z,57.40
2018-05-16T00:36:01.895Z,57.30
2018-05-16T00:38:04.825Z,57.40
2018-05-16T00:40:07.769Z,57.50
2018-05-16T00:42:12.212Z,57.40
2018-05-16T00:44:15.997Z,57.20
2018-05-16T00:46:18.958Z,57.10
2018-05-16T00:48:21.909Z,57.00
2018-05-16T00:50:24.869Z,57.10
2018-05-16T00:52:28.565Z,57.50
2018-05-16T00:54:32.366Z,57.70
2018-05-16T00:56:36.170Z,57.80
2018-05-16T00:58:39.850Z,57.70
2018-05-16T01:00:42.785Z,57.60
2018-05-16T01:02:45.701Z,57.70
2018-05-16T01:04:48.734Z,57.70
2018-05-16T01:06:51.662Z,57.80
2018-05-16T01:08:54.599Z,57.70
2018-05-16T01:10:57.544Z,57.90
2018-05-16T01:13:01.233Z,58.40
2018-05-16T01:15:04.245Z,58.20
2018-05-16T01:17:08.046Z,58.50
2018-05-16T01:19:11.728Z,58.60
2018-05-16T01:21:14.679Z,58.50
2018-05-16T01:23:17.585Z,58.50
2018-05-16T01:25:22.046Z,58.50
2018-05-16T01:27:24.967Z,58.50
2018-05-16T01:29:27.889Z,58.40
2018-05-16T01:31:31.693Z,58.50
2018-05-16T01:33:35.365Z,59.10
2018-05-16T01:35:38.303Z,58.40
2018-05-16T01:37:41.218Z,58.40
2018-05-16T01:39:44.121Z,58.50
2018-05-16T01:41:48.566Z,58.70
2018-05-16T01:43:51.495Z,58.70
2018-05-16T01:45:54.372Z,58.70
2018-05-16T01:47:57.253Z,58.60
2018-05-16T01:50:00.333Z,58.60
2018-05-16T01:52:03.201Z,58.70
2018-05-16T01:54:06.112Z,58.80
2018-05-16T01:56:09.007Z,58.70
2018-05-16T01:58:12.672Z,59.10
2018-05-16T02:00:15.661Z,59.00
2018-05-16T02:02:18.552Z,59.10
2018-05-16T02:04:21.537Z,59.00
2018-05-16T02:06:24.431Z,59.10
2018-05-16T02:08:28.110Z,59.40
2018-05-16T02:10:31.094Z,59.30
2018-05-16T02:12:34.085Z,59.20
2018-05-16T02:14:37.729Z,59.00
2018-05-16T02:16:40.648Z,59.50
2018-05-16T02:18:43.561Z,59.80
2018-05-16T02:20:47.209Z,59.90
2018-05-16T02:22:50.104Z,59.50
2018-05-16T02:24:53.002Z,59.40
2018-05-16T02:26:55.885Z,59.90
2018-05-16T02:28:58.796Z,60.20
2018-05-16T02:31:02.418Z,60.50
2018-05-16T02:33:05.350Z,60.40
2018-05-16T02:35:08.322Z,60.60
2018-05-16T02:37:12.732Z,60.30
2018-05-16T02:39:15.715Z,60.30
2018-05-16T02:41:18.701Z,60.20
2018-05-16T02:43:21.602Z,59.90
2018-05-16T02:45:24.665Z,59.80
2018-05-16T02:47:27.652Z,59.80
2018-05-16T02:49:30.546Z,60.10
2018-05-16T02:51:34.952Z,60.50
2018-05-16T02:53:37.931Z,60.50
2018-05-16T02:55:40.812Z,60.70
2018-05-16T02:57:43.693Z,60.90
2018-05-16T02:59:46.656Z,60.90
2018-05-16T03:01:49.532Z,60.80
2018-05-16T03:03:52.529Z,60.60
2018-05-16T03:05:55.418Z,60.40
2018-05-16T03:07:58.444Z,60.30
2018-05-16T03:10:02.094Z,60.60
2018-05-16T03:12:04.976Z,60.60
2018-05-16T03:14:07.869Z,60.80
2018-05-16T03:16:11.529Z,61.40
2018-05-16T03:18:14.453Z,60.90
2018-05-16T03:20:17.316Z,60.90
2018-05-16T03:22:20.196Z,60.70
2018-05-16T03:24:23.118Z,60.60
2018-05-16T03:26:26.010Z,60.60
2018-05-16T03:28:28.940Z,60.40
2018-05-16T03:30:31.825Z,60.30
2018-05-16T03:32:34.697Z,60.30
2018-05-16T03:34:37.734Z,60.50
2018-05-16T03:36:41.357Z,60.70
2018-05-16T03:38:44.409Z,60.70
2018-05-16T03:40:48.788Z,60.60
2018-05-16T03:42:51.667Z,60.50
2018-05-16T03:44:54.573Z,60.40
2018-05-16T03:46:58.218Z,60.80
2018-05-16T03:49:01.237Z,60.30
2018-05-16T03:51:04.222Z,61.20
2018-05-16T03:53:07.213Z,60.40
2018-05-16T03:55:10.874Z,60.60
2018-05-16T03:57:25.793Z,60.70
2018-05-16T03:59:41.486Z,60.90
2018-05-16T04:01:57.233Z,60.80
2018-05-16T04:04:12.028Z,60.60
2018-05-16T04:06:15.017Z,60.70
2018-05-16T04:08:18.641Z,60.80
2018-05-16T04:10:21.529Z,60.80
2018-05-16T04:12:24.429Z,60.90
2018-05-16T04:14:27.308Z,60.80
2018-05-16T04:16:30.200Z,60.60
2018-05-16T04:18:34.714Z,60.40
2018-05-16T04:20:37.593Z,60.40
2018-05-16T04:22:42.000Z,60.60
2018-05-16T04:24:44.887Z,60.60
2018-05-16T04:26:47.781Z,60.80
2018-05-16T04:28:51.521Z,60.80
2018-05-16T04:30:55.337Z,60.90
2018-05-16T04:32:58.246Z,60.80
2018-05-16T04:35:01.441Z,60.80
2018-05-16T04:37:04.434Z,60.40
2018-05-16T04:39:08.837Z,61.20
2018-05-16T04:41:11.728Z,61.20
2018-05-16T04:43:16.133Z,61.20
2018-05-16T04:45:20.565Z,61.20
2018-05-16T04:47:23.541Z,61.20
2018-05-16T04:49:26.425Z,61.20
2018-05-16T04:51:29.400Z,61.30
2018-05-16T04:53:33.862Z,61.40
2018-05-16T04:55:37.512Z,61.50
2018-05-16T04:57:40.419Z,61.40
2018-05-16T04:59:44.068Z,61.40
2018-05-16T05:01:46.974Z,61.40
2018-05-16T05:03:49.965Z,61.40
2018-05-16T05:05:52.860Z,61.20
2018-05-16T05:07:57.257Z,61.30
2018-05-16T05:10:00.140Z,61.20
2018-05-16T05:12:04.657Z,61.20
2018-05-16T05:14:07.644Z,61.20
2018-05-16T05:16:10.625Z,61.40
2018-05-16T05:18:13.668Z,61.50
2018-05-16T05:20:17.318Z,61.50
2018-05-16T05:22:20.313Z,61.40
2018-05-16T05:24:23.962Z,61.20
2018-05-16T05:26:26.872Z,61.10
2018-05-16T05:28:29.778Z,61.20
2018-05-16T05:30:33.477Z,61.60
2018-05-16T05:32:37.141Z,61.60
2018-05-16T05:34:40.021Z,61.50
2018-05-16T05:36:42.901Z,61.50
2018-05-16T05:38:45.897Z,61.40
2018-05-16T05:40:48.800Z,61.50
2018-05-16T05:42:52.490Z,62.60
2018-05-16T05:44:55.363Z,61.70
2018-05-16T05:46:59.058Z,62.60
2018-05-16T05:49:01.940Z,62.00
2018-05-16T05:51:04.962Z,61.90
2018-05-16T05:53:08.613Z,62.20
2018-05-16T05:55:11.508Z,62.20
2018-05-16T05:57:15.910Z,62.40
2018-05-16T05:59:19.321Z,62.40
2018-05-16T06:01:22.981Z,62.40
2018-05-16T06:03:26.036Z,62.30
2018-05-16T06:05:29.655Z,62.30
2018-05-16T06:07:32.572Z,62.20
2018-05-16T06:09:35.570Z,62.10
2018-05-16T06:11:38.449Z,62.40
2018-05-16T06:13:42.880Z,62.40
2018-05-16T06:15:45.776Z,62.30
2018-05-16T06:17:49.423Z,62.40
2018-05-16T06:19:52.402Z,62.40
2018-05-16T06:21:55.193Z,62.40
2018-05-16T06:23:59.609Z,62.20
2018-05-16T06:26:02.497Z,62.10
2018-05-16T06:28:05.473Z,62.00
2018-05-16T06:30:08.356Z,61.80
2018-05-16T06:32:11.292Z,61.70
2018-05-16T06:34:14.178Z,61.50
2018-05-16T06:36:17.029Z,61.30
2018-05-16T06:38:19.947Z,61.30
2018-05-16T06:40:22.869Z,61.40
2018-05-16T06:42:27.384Z,60.70
2018-05-16T06:44:31.797Z,61.00
2018-05-16T06:46:34.727Z,60.90
2018-05-16T06:48:38.365Z,60.80
2018-05-16T06:50:41.301Z,60.60
2018-05-16T06:52:44.949Z,60.10
2018-05-16T06:54:47.863Z,60.00
2018-05-16T06:56:50.708Z,59.80
2018-05-16T06:58:53.601Z,59.80
2018-05-16T07:00:56.601Z,60.10
2018-05-16T07:03:01.152Z,60.10
2018-05-16T07:05:04.773Z,60.30
2018-05-16T07:07:07.680Z,60.20
2018-05-16T07:09:10.661Z,60.10
2018-05-16T07:11:13.540Z,59.80
2018-05-16T07:13:16.471Z,59.50
2018-05-16T07:15:20.141Z,60.60
2018-05-16T07:17:23.060Z,59.70
2018-05-16T07:19:26.006Z,59.60
2018-05-16T07:21:28.973Z,59.60
2018-05-16T07:23:31.964Z,59.80
2018-05-16T07:25:34.825Z,59.80
2018-05-16T07:27:37.717Z,60.00
2018-05-16T07:29:40.596Z,60.20
2018-05-16T07:31:43.476Z,60.50
2018-05-16T07:33:46.367Z,60.50
2018-05-16T07:35:49.232Z,60.50
2018-05-16T07:37:52.220Z,60.20
2018-05-16T07:39:55.105Z,59.90
2018-05-16T07:41:59.509Z,60.20
2018-05-16T07:44:02.513Z,60.20
2018-05-16T07:46:05.496Z,60.40
2018-05-16T07:48:08.388Z,60.20
2018-05-16T07:50:12.069Z,59.90
2018-05-16T07:52:15.056Z,59.80
2018-05-16T07:54:17.974Z,59.70
2018-05-16T07:56:21.598Z,59.70
2018-05-16T07:58:24.485Z,59.60
2018-05-16T08:00:27.362Z,59.70
2018-05-16T08:02:30.276Z,59.60
2018-05-16T08:04:33.286Z,59.50
2018-05-16T08:06:36.953Z,59.30
2018-05-16T08:08:39.937Z,59.70
2018-05-16T08:10:42.808Z,59.90
2018-05-16T08:12:46.500Z,59.60
2018-05-16T08:14:49.364Z,59.40
2018-05-16T08:16:52.525Z,59.30
2018-05-16T08:18:55.426Z,59.20
2018-05-16T08:20:58.349Z,59.00
2018-05-16T08:23:01.248Z,58.90
2018-05-16T08:25:05.618Z,58.50
2018-05-16T08:27:08.531Z,58.40
2018-05-16T08:29:11.620Z,58.60
2018-05-16T08:31:15.330Z,58.40
2018-05-16T08:33:18.180Z,58.30
2018-05-16T08:35:21.181Z,58.50
2018-05-16T08:37:24.041Z,58.50
2018-05-16T08:39:26.954Z,58.50
2018-05-16T08:41:29.961Z,58.00
2018-05-16T08:43:32.797Z,57.60
2018-05-16T08:45:37.209Z,57.50
2018-05-16T08:47:40.081Z,57.40
2018-05-16T08:49:42.977Z,57.70
2018-05-16T08:51:45.868Z,57.40
2018-05-16T08:53:48.840Z,57.30
2018-05-16T08:55:51.733Z,57.40
2018-05-16T08:57:54.716Z,57.60
2018-05-16T08:59:57.605Z,57.50
2018-05-16T09:02:00.587Z,57.30
2018-05-16T09:04:04.268Z,56.90
2018-05-16T09:06:07.165Z,56.80
2018-05-16T09:08:10.829Z,56.60
2018-05-16T09:10:13.709Z,56.50
2018-05-16T09:12:16.614Z,56.70
2018-05-16T09:14:19.484Z,56.90
2018-05-16T09:16:22.373Z,56.30
2018-05-16T09:18:25.245Z,55.70
2018-05-16T09:20:28.237Z,55.70
2018-05-16T09:22:31.225Z,55.50
2018-05-16T09:24:35.610Z,55.20
2018-05-16T09:26:39.398Z,55.10
2018-05-16T09:28:42.268Z,55.20
2018-05-16T09:30:45.168Z,55.20
2018-05-16T09:32:48.040Z,55.30
2018-05-16T09:34:50.923Z,55.20
2018-05-16T09:36:53.810Z,55.00
2018-05-16T09:38:56.749Z,55.00
2018-05-16T09:40:59.668Z,54.90
2018-05-16T09:43:02.541Z,55.50
2018-05-16T09:45:05.406Z,54.90
2018-05-16T09:47:08.346Z,54.80
2018-05-16T09:49:11.326Z,55.00
2018-05-16T09:51:14.235Z,55.10
2018-05-16T09:53:17.904Z,56.00
2018-05-16T09:55:20.842Z,55.40
2018-05-16T09:57:23.787Z,55.40
2018-05-16T09:59:28.172Z,55.30
2018-05-16T10:01:31.033Z,55.30
2018-05-16T10:03:33.928Z,55.20
2018-05-16T10:05:36.827Z,55.00
2018-05-16T10:07:39.834Z,54.90
2018-05-16T10:09:42.762Z,54.60
2018-05-16T10:11:45.588Z,54.20
2018-05-16T10:13:49.986Z,53.60
2018-05-16T10:15:52.856Z,53.60
2018-05-16T10:17:55.753Z,53.40
2018-05-16T10:19:58.637Z,53.30
2018-05-16T10:22:01.563Z,53.60
2018-05-16T10:24:04.645Z,53.50
2018-05-16T10:26:08.308Z,53.00
2018-05-16T10:28:12.818Z,53.00
2018-05-16T10:30:15.701Z,52.90
2018-05-16T10:32:19.350Z,52.80
2018-05-16T10:34:22.295Z,52.70
2018-05-16T10:36:25.933Z,52.60
2018-05-16T10:38:29.270Z,52.60
2018-05-16T10:40:32.176Z,52.40
2018-05-16T10:42:35.877Z,52.70
2018-05-16T10:44:39.536Z,51.80
2018-05-16T10:46:42.416Z,51.80
2018-05-16T10:48:45.305Z,51.50
2018-05-16T10:50:48.289Z,51.50
2018-05-16T10:52:51.150Z,51.50
2018-05-16T10:54:54.050Z,51.40
2018-05-16T10:56:56.928Z,51.40
2018-05-16T10:58:59.827Z,51.50
2018-05-16T11:01:02.728Z,51.70
2018-05-16T11:03:06.395Z,51.20
2018-05-16T11:05:09.315Z,51.10
2018-05-16T11:07:12.957Z,51.10
2018-05-16T11:09:16.673Z,50.80
2018-05-16T11:11:19.551Z,50.70
2018-05-16T11:13:22.438Z,50.70
2018-05-16T11:15:25.334Z,50.70
2018-05-16T11:17:29.736Z,50.80
2018-05-16T11:19:32.675Z,50.80
2018-05-16T11:21:35.604Z,51.00
2018-05-16T11:23:38.481Z,50.60
2018-05-16T11:25:41.413Z,49.80
2018-05-16T11:27:44.341Z,49.50
2018-05-16T11:29:47.228Z,49.40
2018-05-16T11:31:51.761Z,49.40
2018-05-16T11:33:55.541Z,49.20
2018-05-16T11:35:58.937Z,49.20
2018-05-16T11:38:01.804Z,48.40
2018-05-16T11:40:04.690Z,47.80
2018-05-16T11:42:07.584Z,48.20
2018-05-16T11:44:10.464Z,49.10
2018-05-16T11:46:14.969Z,47.80
2018-05-16T11:48:17.866Z,47.70
2018-05-16T11:50:20.764Z,47.60
2018-05-16T11:52:23.725Z,47.60
2018-05-16T11:54:26.613Z,47.30
2018-05-16T11:56:31.051Z,46.30
2018-05-16T11:58:34.794Z,46.30
2018-05-16T12:00:37.674Z,46.20
2018-05-16T12:02:40.583Z,46.80
2018-05-16T12:04:43.457Z,47.00
2018-05-16T12:06:46.315Z,46.60
2018-05-16T12:08:49.237Z,45.80
2018-05-16T12:10:52.109Z,45.40
2018-05-16T12:12:55.130Z,45.40
2018-05-16T12:14:58.926Z,45.50
2018-05-16T12:17:03.204Z,46.00
2018-05-16T12:19:06.082Z,46.00
2018-05-16T12:21:09.109Z,45.70
2018-05-16T12:23:12.749Z,45.00
2018-05-16T12:25:15.632Z,44.90
2018-05-16T12:27:18.529Z,45.00
2018-05-16T12:29:21.505Z,45.00
2018-05-16T12:31:24.281Z,44.90
2018-05-16T12:33:27.181Z,45.10
2018-05-16T12:35:30.063Z,44.90
2018-05-16T12:37:33.051Z,44.70
2018-05-16T12:39:35.929Z,44.20
2018-05-16T12:41:38.789Z,44.00
2018-05-16T12:43:41.682Z,44.30
2018-05-16T12:45:44.556Z,44.20
2018-05-16T12:47:48.256Z,44.20
2018-05-16T12:49:52.632Z,44.10
2018-05-16T12:51:55.502Z,44.00
2018-05-16T12:53:58.396Z,43.90
2018-05-16T12:56:01.265Z,44.50
2018-05-16T12:58:04.142Z,44.00
2018-05-16T13:00:07.804Z,44.00
2018-05-16T13:02:10.702Z,43.90
2018-05-16T13:04:14.337Z,43.30
2018-05-16T13:06:17.205Z,43.20
2018-05-16T13:08:20.085Z,43.30
2018-05-16T13:10:22.949Z,43.60
2018-05-16T13:12:26.621Z,43.40
2018-05-16T13:14:29.497Z,43.30
2018-05-16T13:16:32.399Z,43.20
2018-05-16T13:18:36.114Z,43.20
2018-05-16T13:20:39.734Z,43.40
2018-05-16T13:22:42.657Z,43.30
2018-05-16T13:24:45.548Z,43.60
2018-05-16T13:26:48.547Z,43.00
2018-05-16T13:28:51.405Z,42.40
2018-05-16T13:30:54.270Z,42.10
2018-05-16T13:32:57.361Z,42.10
2018-05-16T13:35:00.249Z,42.30
2018-05-16T13:37:03.120Z,42.40
2018-05-16T13:39:06.108Z,42.10
2018-05-16T13:41:09.001Z,41.60
2018-05-16T13:43:12.006Z,41.40
2018-05-16T13:45:15.689Z,40.50
2018-05-16T13:47:18.649Z,40.30
2018-05-16T13:49:21.553Z,40.20
2018-05-16T13:51:25.193Z,40.30
2018-05-16T13:53:28.161Z,39.90
2018-05-16T13:55:30.962Z,39.90
2018-05-16T13:57:33.856Z,39.80
2018-05-16T13:59:36.762Z,40.00
2018-05-16T14:01:39.589Z,40.00
2018-05-16T14:03:42.516Z,39.90
2018-05-16T14:05:45.395Z,40.10
2018-05-16T14:07:48.422Z,40.40
2018-05-16T14:09:52.057Z,40.90
2018-05-16T14:11:54.942Z,41.50
2018-05-16T14:13:57.846Z,40.70
2018-05-16T14:16:00.713Z,40.80
2018-05-16T14:18:03.720Z,40.60
2018-05-16T14:20:09.064Z,40.80
2018-05-16T14:22:13.089Z,40.60
2018-05-16T14:24:15.901Z,40.50
2018-05-16T14:26:18.769Z,40.20
2018-05-16T14:28:21.664Z,39.80
2018-05-16T14:30:24.541Z,39.40
2018-05-16T14:32:27.494Z,39.30
2018-05-16T14:34:31.143Z,39.60
2018-05-16T14:36:34.005Z,38.80
2018-05-16T14:38:36.914Z,38.80
2018-05-16T14:40:39.790Z,38.80
2018-05-16T14:42:42.847Z,38.90
2018-05-16T14:44:45.677Z,38.60
2018-05-16T14:46:49.315Z,38.30
2018-05-16T14:48:52.242Z,38.40
2018-05-16T14:50:55.119Z,38.20
2018-05-16T14:52:58.142Z,38.50
2018-05-16T14:55:01.791Z,39.00
2018-05-16T14:57:04.679Z,39.00
2018-05-16T14:59:07.613Z,38.90
2018-05-16T15:01:10.545Z,38.90
2018-05-16T15:03:13.470Z,38.90
2018-05-16T15:05:17.110Z,38.90
2018-05-16T15:07:20.055Z,38.90
2018-05-16T15:09:22.893Z,38.90
2018-05-16T15:11:27.273Z,38.80
2018-05-16T15:13:30.200Z,38.80
2018-05-16T15:15:33.151Z,38.90
2018-05-16T15:17:36.022Z,39.40
2018-05-16T15:19:38.924Z,40.00
2018-05-16T15:21:41.793Z,40.80
2018-05-16T15:23:44.673Z,41.20
2018-05-16T15:25:47.578Z,41.70
2018-05-16T15:27:51.233Z,42.80
2018-05-16T15:29:54.488Z,42.80
2018-05-16T15:31:58.138Z,43.50
2018-05-16T15:34:01.030Z,43.40
2018-05-16T15:36:03.937Z,43.50
2018-05-16T15:38:06.817Z,43.30
2018-05-16T15:40:10.478Z,43.10
2018-05-16T15:42:13.378Z,43.00
2018-05-16T15:44:16.337Z,42.90
2018-05-16T15:46:21.150Z,42.80
2018-05-16T15:48:24.080Z,42.70
2018-05-16T15:50:26.966Z,42.80
2018-05-16T15:52:29.931Z,42.70
2018-05-16T15:54:32.729Z,43.00
2018-05-16T15:56:35.637Z,43.00
2018-05-16T15:58:38.593Z,43.00
2018-05-16T16:00:41.577Z,42.90
2018-05-16T16:02:45.256Z,43.50
2018-05-16T16:04:48.356Z,43.40
2018-05-16T16:06:52.070Z,43.20
2018-05-16T16:08:56.456Z,43.20
2018-05-16T16:11:00.889Z,43.10
2018-05-16T16:13:05.289Z,43.00
2018-05-16T16:15:08.223Z,42.90
2018-05-16T16:17:11.864Z,43.30
2018-05-16T16:19:19.707Z,43.20
2018-05-16T16:21:25.263Z,43.20
2018-05-16T16:23:28.413Z,43.50
2018-05-16T16:25:31.294Z,43.70
2018-05-16T16:27:34.265Z,43.80
2018-05-16T16:29:37.156Z,44.00
2018-05-16T16:31:40.073Z,44.10
2018-05-16T16:33:42.957Z,44.20
2018-05-16T16:35:45.904Z,44.30
2018-05-16T16:37:49.555Z,44.80
2018-05-16T16:39:52.511Z,44.60
2018-05-16T16:41:56.357Z,44.80
2018-05-16T16:43:59.276Z,44.80
2018-05-16T16:46:02.934Z,45.00
2018-05-16T16:48:05.813Z,45.00
2018-05-16T16:50:08.704Z,45.00
2018-05-16T16:52:11.610Z,45.20
2018-05-16T16:54:14.544Z,45.20
2018-05-16T16:56:17.461Z,45.00
2018-05-16T16:58:20.341Z,45.00
2018-05-16T17:00:23.342Z,45.10
2018-05-16T17:02:26.413Z,45.00
2018-05-16T17:04:29.575Z,45.00
2018-05-16T17:06:33.189Z,45.00
2018-05-16T17:08:36.058Z,45.00
2018-05-16T17:10:38.961Z,45.10
2018-05-16T17:12:41.849Z,45.20
2018-05-16T17:14:44.840Z,45.20
2018-05-16T17:16:48.517Z,45.50
2018-05-16T17:18:51.389Z,45.50
2018-05-16T17:20:54.382Z,45.50
2018-05-16T17:22:57.248Z,45.40
2018-05-16T17:25:00.169Z,45.50
2018-05-16T17:27:03.053Z,45.40
2018-05-16T17:29:06.681Z,45.50
2018-05-16T17:31:09.573Z,45.40
2018-05-16T17:33:12.470Z,45.50
2018-05-16T17:35:15.376Z,45.60
2018-05-16T17:37:18.345Z,45.70
2018-05-16T17:39:21.330Z,45.70
2018-05-16T17:41:25.763Z,45.70
2018-05-16T17:43:29.410Z,45.40
2018-05-16T17:45:32.288Z,45.80
2018-05-16T17:47:35.223Z,45.90
2018-05-16T17:49:38.105Z,45.90
2018-05-16T17:51:40.993Z,46.00
2018-05-16T17:53:43.933Z,46.00
2018-05-16T17:55:46.753Z,46.10
2018-05-16T17:57:49.640Z,46.30
2018-05-16T17:59:53.312Z,46.60
2018-05-16T18:01:56.207Z,46.60
2018-05-16T18:03:59.219Z,46.70
2018-05-16T18:06:02.884Z,47.30
2018-05-16T18:08:05.769Z,47.30
2018-05-16T18:10:08.709Z,47.60
2018-05-16T18:12:11.577Z,47.70
2018-05-16T18:14:26.471Z,48.00
2018-05-16T18:16:41.386Z,48.30
2018-05-16T18:18:45.002Z,48.80
2018-05-16T18:20:48.071Z,48.80
2018-05-16T18:22:51.709Z,49.30
2018-05-16T18:24:55.426Z,49.60
2018-05-16T18:26:58.308Z,49.60
2018-05-16T18:29:01.332Z,49.70
2018-05-16T18:31:04.992Z,49.90
2018-05-16T18:33:07.861Z,49.80
2018-05-16T18:35:10.862Z,49.70
2018-05-16T18:37:13.728Z,49.60
2018-05-16T18:39:16.623Z,49.70
2018-05-16T18:41:19.598Z,49.70
2018-05-16T18:43:22.469Z,49.80
2018-05-16T18:45:25.367Z,49.70
2018-05-16T18:47:28.253Z,49.70
2018-05-16T18:49:31.140Z,49.60
2018-05-16T18:51:34.817Z,49.10
2018-05-16T18:53:37.702Z,49.00
2018-05-16T18:55:40.682Z,48.90
2018-05-16T18:57:45.077Z,48.60
2018-05-16T18:59:47.973Z,48.50
2018-05-16T19:01:51.006Z,48.40
2018-05-16T19:03:54.660Z,48.20
2018-05-16T19:05:57.660Z,48.20
2018-05-16T19:08:00.553Z,48.40
2018-05-16T19:10:04.221Z,48.70
2018-05-16T19:12:07.093Z,48.50
2018-05-16T19:14:09.956Z,48.80
2018-05-16T19:16:12.854Z,49.20
2018-05-16T19:18:15.733Z,49.30
2018-05-16T19:20:18.710Z,49.30
2018-05-16T19:22:21.606Z,49.60
2018-05-16T19:24:24.538Z,49.80
2018-05-16T19:26:28.193Z,50.00
2018-05-16T19:28:31.059Z,49.90
2018-05-16T19:30:33.976Z,50.00
2018-05-16T19:32:37.630Z,50.20
2018-05-16T19:34:40.529Z,50.20
2018-05-16T19:36:43.406Z,50.30
2018-05-16T19:38:46.309Z,50.60
2018-05-16T19:40:49.998Z,50.90
2018-05-16T19:42:52.877Z,51.40
2018-05-16T19:44:55.788Z,51.80
2018-05-16T19:46:59.461Z,52.40
2018-05-16T19:49:02.341Z,52.30
2018-05-16T19:51:06.752Z,52.80
2018-05-16T19:53:09.649Z,52.80
2018-05-16T19:55:12.573Z,53.00
2018-05-16T19:57:15.500Z,53.10
2018-05-16T19:59:18.565Z,53.30
2018-05-16T20:01:21.461Z,53.40
2018-05-16T20:03:24.398Z,53.40
2018-05-16T20:05:27.371Z,53.50
2018-05-16T20:07:30.240Z,53.80
2018-05-16T20:09:33.951Z,53.90
2018-05-16T20:11:37.606Z,54.00
2018-05-16T20:13:40.481Z,53.90
2018-05-16T20:15:43.505Z,54.00
2018-05-16T20:17:47.188Z,54.80
2018-05-16T20:19:50.845Z,54.20
2018-05-16T20:21:53.717Z,54.10
2018-05-16T20:23:56.689Z,54.20
2018-05-16T20:25:59.625Z,54.40
2018-05-16T20:28:02.499Z,54.50
2018-05-16T20:30:05.420Z,54.60
2018-05-16T20:32:09.061Z,54.70
2018-05-16T20:34:11.930Z,54.70
2018-05-16T20:36:14.982Z,54.80
2018-05-16T20:38:19.358Z,54.90
2018-05-16T20:40:22.364Z,54.90
2018-05-16T20:42:26.013Z,55.00
2018-05-16T20:44:28.921Z,54.90
2018-05-16T20:46:33.347Z,55.10
2018-05-16T20:48:37.035Z,55.10
2018-05-16T20:50:39.958Z,55.10
2018-05-16T20:52:43.633Z,55.30
2018-05-16T20:54:46.518Z,55.30
2018-05-16T20:56:50.204Z,55.60
2018-05-16T20:58:53.113Z,55.50
2018-05-16T21:00:56.776Z,55.70
2018-05-16T21:02:59.660Z,55.60
2018-05-16T21:05:04.064Z,55.70
2018-05-16T21:07:07.084Z,56.30
2018-05-16T21:09:10.727Z,55.80
2018-05-16T21:11:13.717Z,55.70
2018-05-16T21:13:16.619Z,55.70
2018-05-16T21:15:19.628Z,55.60
2018-05-16T21:17:23.256Z,56.40
2018-05-16T21:19:26.189Z,55.60
2018-05-16T21:21:30.590Z,55.80
2018-05-16T21:23:34.300Z,55.80
2018-05-16T21:25:38.735Z,55.80
2018-05-16T21:27:41.593Z,55.70
2018-05-16T21:29:44.503Z,55.80
2018-05-16T21:31:47.386Z,55.80
2018-05-16T21:33:51.025Z,55.90
2018-05-16T21:35:53.940Z,55.90
2018-05-16T21:37:56.826Z,56.00
2018-05-16T21:39:59.812Z,56.10
2018-05-16T21:42:02.713Z,56.10
2018-05-16T21:44:06.357Z,56.10
2018-05-16T21:46:09.250Z,56.60
2018-05-16T21:48:12.117Z,56.10
2018-05-16T21:50:15.000Z,56.10
2018-05-16T21:52:17.877Z,56.20
2018-05-16T21:54:20.805Z,56.30
2018-05-16T21:56:23.672Z,56.50
2018-05-16T21:58:26.578Z,56.50
2018-05-16T22:00:29.457Z,56.70
2018-05-16T22:02:33.102Z,56.80
2018-05-16T22:04:35.977Z,56.80
2018-05-16T22:06:38.906Z,56.90
2018-05-16T22:08:42.596Z,57.50
2018-05-16T22:10:45.478Z,57.00
2018-05-16T22:12:48.402Z,57.00
2018-05-16T22:14:52.009Z,56.90
2018-05-16T22:16:54.885Z,56.90
2018-05-16T22:18:57.776Z,56.70
2018-05-16T22:21:00.666Z,56.90
2018-05-16T22:23:03.544Z,57.40
2018-05-16T22:25:06.457Z,57.30
2018-05-16T22:27:09.345Z,57.20
2018-05-16T22:29:13.008Z,57.00
2018-05-16T22:31:21.528Z,57.10
2018-05-16T22:33:30.137Z,57.20
2018-05-16T22:35:38.753Z,57.50
2018-05-16T22:37:47.964Z,57.70
2018-05-16T22:39:56.562Z,57.80
2018-05-16T22:42:05.893Z,58.30
2018-05-16T22:44:26.493Z,58.90
2018-05-16T22:46:29.474Z,58.50
2018-05-16T22:48:33.138Z,59.30
2018-05-16T22:50:36.217Z,58.70
2018-05-16T22:52:40.743Z,58.80
2018-05-16T22:54:43.615Z,58.80
2018-05-16T22:56:46.721Z,59.00
2018-05-16T22:58:49.628Z,59.00
2018-05-16T23:00:52.559Z,59.10
2018-05-16T23:02:55.452Z,59.10
2018-05-16T23:04:59.956Z,59.20
2018-05-16T23:07:02.849Z,59.10
2018-05-16T23:09:05.840Z,59.10
2018-05-16T23:11:08.819Z,59.20
2018-05-16T23:13:11.788Z,59.40
2018-05-16T23:15:14.689Z,59.50
2018-05-16T23:17:17.658Z,59.50
2018-05-16T23:19:20.549Z,59.50
2018-05-16T23:21:25.032Z,59.90
2018-05-16T23:23:27.932Z,59.80
2018-05-16T23:25:31.633Z,60.30
2018-05-16T23:27:34.525Z,60.30
2018-05-16T23:29:37.401Z,60.50
2018-05-16T23:31:41.814Z,60.60
2018-05-16T23:33:44.739Z,60.60
2018-05-16T23:35:48.532Z,60.80
2018-05-16T23:37:52.216Z,61.00
2018-05-16T23:39:55.901Z,61.60
2018-05-16T23:41:58.789Z,61.00
2018-05-16T23:44:01.665Z,61.30
2018-05-16T23:46:04.855Z,62.10
2018-05-16T23:48:07.833Z,63.10
2018-05-16T23:50:10.816Z,64.00
2018-05-16T23:52:14.029Z,64.00
2018-05-16T23:54:17.701Z,64.10
2018-05-16T23:56:20.581Z,64.00
2018-05-16T23:58:23.668Z,63.70
